sensor_id;sensor_type;location;lat;lon;timestamp;P1;durP1;ratioP1;P2;durP2;ratioP2
50649;SDS011;36621;60.058;30.346;2023-06-14T05:35:05;5.40;;;2.38;;
50649;SDS011;36621;60.058;30.346;2023-06-14T05:42:41;6.25;;;2.03;;
50649;SDS011;36621;60.058;30.346;2023-06-14T05:50:14;39.20;;;4.43;;
50649;SDS011;36621;60.058;30.346;2023-06-14T05:57:46;9.02;;;2.30;;
50649;SDS011;36621;60.058;30.346;2023-06-14T06:05:20;17.35;;;3.15;;
50649;SDS011;36621;60.058;30.346;2023-06-14T15:28:08;12.43;;;3.78;;
50649;SDS011;36621;60.058;30.346;2023-06-14T15:35:41;9.23;;;3.50;;
50649;SDS011;36621;60.058;30.346;2023-06-14T15:51:31;8.90;;;3.88;;
50649;SDS011;36621;60.058;30.346;2023-06-14T16:07:08;14.35;;;4.53;;
50649;SDS011;36621;60.058;30.346;2023-06-14T16:14:41;13.45;;;4.32;;
50649;SDS011;36621;60.058;30.346;2023-06-14T16:22:12;15.48;;;4.20;;
50649;SDS011;36621;60.058;30.346;2023-06-14T16:29:45;8.95;;;3.47;;
50649;SDS011;36621;60.058;30.346;2023-06-14T16:37:19;11.95;;;3.78;;
50649;SDS011;36621;60.058;30.346;2023-06-14T16:45:10;8.43;;;4.50;;
50649;SDS011;36621;60.058;30.346;2023-06-14T16:53:01;8.90;;;4.13;;
50649;SDS011;36621;60.058;30.346;2023-06-14T17:16:27;8.35;;;2.97;;
50649;SDS011;36621;60.058;30.346;2023-06-14T17:24:01;10.88;;;3.13;;
50649;SDS011;36621;60.058;30.346;2023-06-14T17:40:00;12.13;;;3.53;;
50649;SDS011;36621;60.058;30.346;2023-06-14T17:47:33;8.70;;;3.35;;
50649;SDS011;36621;60.058;30.346;2023-06-14T18:03:47;9.03;;;3.50;;
50649;SDS011;36621;60.058;30.346;2023-06-14T18:28:51;27.50;;;5.32;;
50649;SDS011;36621;60.058;30.346;2023-06-14T18:36:24;46.08;;;7.22;;
50649;SDS011;36621;60.058;30.346;2023-06-14T18:51:47;23.05;;;4.35;;
50649;SDS011;36621;60.058;30.346;2023-06-14T19:07:13;19.25;;;4.50;;
50649;SDS011;36621;60.058;30.346;2023-06-14T19:22:38;13.30;;;4.03;;
50649;SDS011;36621;60.058;30.346;2023-06-14T19:30:11;11.70;;;4.70;;
50649;SDS011;36621;60.058;30.346;2023-06-14T19:37:43;8.35;;;4.43;;
50649;SDS011;36621;60.058;30.346;2023-06-14T19:53:40;9.38;;;3.75;;
50649;SDS011;36621;60.058;30.346;2023-06-14T20:01:12;11.40;;;3.40;;
50649;SDS011;36621;60.058;30.346;2023-06-14T20:08:44;8.77;;;3.95;;
50649;SDS011;36621;60.058;30.346;2023-06-14T20:24:08;13.27;;;4.70;;
50649;SDS011;36621;60.058;30.346;2023-06-14T20:31:40;14.15;;;5.18;;
50649;SDS011;36621;60.058;30.346;2023-06-14T20:39:13;12.13;;;4.68;;
50649;SDS011;36621;60.058;30.346;2023-06-14T20:46:45;13.57;;;5.40;;
50649;SDS011;36621;60.058;30.346;2023-06-14T20:54:19;43.83;;;17.60;;
50649;SDS011;36621;60.058;30.346;2023-06-14T21:01:52;26.90;;;8.70;;
50649;SDS011;36621;60.058;30.346;2023-06-14T21:09:25;36.28;;;12.27;;
50649;SDS011;36621;60.058;30.346;2023-06-14T21:24:49;39.95;;;15.55;;
50649;SDS011;36621;60.058;30.346;2023-06-14T21:32:21;30.40;;;14.60;;
50649;SDS011;36621;60.058;30.346;2023-06-14T21:39:53;45.13;;;18.08;;
50649;SDS011;36621;60.058;30.346;2023-06-14T21:47:26;42.33;;;14.05;;
50649;SDS011;36621;60.058;30.346;2023-06-14T21:54:59;33.47;;;10.88;;
50649;SDS011;36621;60.058;30.346;2023-06-14T22:18:13;56.10;;;10.85;;
50649;SDS011;36621;60.058;30.346;2023-06-14T22:25:47;65.22;;;10.80;;
50649;SDS011;36621;60.058;30.346;2023-06-14T22:33:19;43.92;;;9.85;;
50649;SDS011;36621;60.058;30.346;2023-06-14T22:40:57;56.08;;;12.07;;
50649;SDS011;36621;60.058;30.346;2023-06-14T22:48:29;48.90;;;11.55;;
50649;SDS011;36621;60.058;30.346;2023-06-14T22:56:02;46.42;;;11.80;;
50649;SDS011;36621;60.058;30.346;2023-06-14T23:03:52;37.83;;;10.60;;
50649;SDS011;36621;60.058;30.346;2023-06-14T23:11:25;48.25;;;10.77;;
50649;SDS011;36621;60.058;30.346;2023-06-14T23:18:58;60.33;;;11.43;;
50649;SDS011;36621;60.058;30.346;2023-06-14T23:26:30;54.42;;;11.68;;
50649;SDS011;36621;60.058;30.346;2023-06-14T23:41:55;60.95;;;10.65;;
50649;SDS011;36621;60.058;30.346;2023-06-14T23:49:29;32.50;;;7.60;;
50649;SDS011;36621;60.058;30.346;2023-06-14T23:57:02;41.40;;;9.40;;
